Time;durP1;ratioP1;P1;durP2;ratioP2;P2;SDS_P1;SDS_P2;PMS_P1;PMS_P2;Temp;Humidity;BMP_temperature;BMP_pressure;BME280_temperature;BME280_humidity;BME280_pressure;Samples;Min_cycle;Max_cycle;Signal;HPM_P1;HPM_P2
2023/02/02 00:00:58;;;;;;;1.40;1.00;;;7.00;99.90;;;;;;5066299;28;20847;-67
2023/02/02 00:03:29;;;;;;;1.53;1.00;;;6.90;99.90;;;;;;5066120;28;20224;-67
2023/02/02 00:05:56;;;;;;;2.20;1.40;;;7.00;99.90;;;;;;5102995;28;21108;-67
2023/02/02 00:08:23;;;;;;;1.80;1.50;;;7.00;99.90;;;;;;5102799;28;20194;-67
2023/02/02 00:10:50;;;;;;;2.03;1.73;;;7.00;99.90;;;;;;5091011;28;20192;-67
2023/02/02 00:13:18;;;;;;;3.43;2.23;;;7.00;99.90;;;;;;5095641;28;20680;-67
2023/02/02 00:15:45;;;;;;;3.47;2.63;;;7.00;99.90;;;;;;5097848;28;20199;-67
2023/02/02 00:18:12;;;;;;;3.93;2.57;;;6.90;99.90;;;;;;5085677;28;20199;-68
2023/02/02 00:20:40;;;;;;;3.57;2.80;;;6.90;99.90;;;;;;5099729;28;20203;-68
2023/02/02 00:23:08;;;;;;;3.90;2.80;;;6.90;99.90;;;;;;5098390;28;20540;-67
2023/02/02 00:25:35;;;;;;;4.27;2.83;;;6.90;99.90;;;;;;5097235;28;21000;-67
2023/02/02 00:28:02;;;;;;;4.03;2.33;;;6.90;99.90;;;;;;5099685;28;20193;-68
2023/02/02 00:30:29;;;;;;;3.17;2.40;;;6.90;99.90;;;;;;5103215;28;20192;-67
2023/02/02 00:32:56;;;;;;;3.53;2.27;;;6.90;99.90;;;;;;5093692;28;20675;-68
2023/02/02 00:35:24;;;;;;;5.77;2.90;;;6.90;99.90;;;;;;5075131;28;20216;-68
2023/02/02 00:37:53;;;;;;;6.23;2.30;;;6.90;99.90;;;;;;5102675;28;20201;-68
2023/02/02 00:40:20;;;;;;;6.40;2.57;;;6.90;99.90;;;;;;5092602;28;20192;-67
2023/02/02 00:42:49;;;;;;;4.60;1.80;;;6.90;99.90;;;;;;5101048;28;20289;-68
2023/02/02 00:45:15;;;;;;;5.80;2.40;;;6.90;99.90;;;;;;5098431;28;20642;-68
2023/02/02 00:47:44;;;;;;;4.33;1.80;;;6.90;99.90;;;;;;5087596;28;20772;-68
2023/02/02 00:50:13;;;;;;;11.57;2.30;;;6.90;99.90;;;;;;5070717;28;20654;-68
2023/02/02 00:52:40;;;;;;;5.30;2.07;;;6.90;99.90;;;;;;5092101;28;20189;-69
2023/02/02 00:55:11;;;;;;;4.00;1.40;;;7.00;99.90;;;;;;5095204;28;20566;-69
2023/02/02 00:57:40;;;;;;;10.27;2.57;;;7.10;99.90;;;;;;5091738;28;20202;-69
2023/02/02 01:00:09;;;;;;;9.90;2.17;;;7.10;99.90;;;;;;5066110;28;20784;-69
2023/02/02 01:02:36;;;;;;;6.77;1.63;;;7.20;99.90;;;;;;5097969;28;20211;-69
2023/02/02 01:05:04;;;;;;;6.47;1.50;;;7.20;99.90;;;;;;5100271;28;20310;-68
2023/02/02 01:07:31;;;;;;;7.63;1.80;;;7.20;99.90;;;;;;5091457;28;20864;-69
2023/02/02 01:09:58;;;;;;;7.03;2.23;;;7.30;99.90;;;;;;5097455;28;20264;-69
2023/02/02 01:12:27;;;;;;;5.90;1.93;;;7.30;99.90;;;;;;5100221;28;20202;-69
2023/02/02 01:14:54;;;;;;;5.10;1.60;;;7.30;99.90;;;;;;5089265;28;20211;-68
2023/02/02 01:17:21;;;;;;;4.43;1.93;;;7.30;99.90;;;;;;5102549;28;20241;-69
2023/02/02 01:19:48;;;;;;;6.57;2.00;;;7.30;99.90;;;;;;5099449;28;20219;-68
2023/02/02 01:22:16;;;;;;;3.40;1.47;;;7.40;99.90;;;;;;5067247;28;20226;-68
2023/02/02 01:24:43;;;;;;;4.20;1.90;;;7.40;99.90;;;;;;5065426;28;20286;-68
2023/02/02 01:27:10;;;;;;;6.27;1.77;;;7.40;99.90;;;;;;5080226;28;20196;-68
2023/02/02 01:29:38;;;;;;;8.60;2.13;;;7.40;99.90;;;;;;5068605;28;20512;-68
2023/02/02 01:32:06;;;;;;;6.73;2.20;;;7.40;99.90;;;;;;5096871;28;20757;-68
2023/02/02 01:34:33;;;;;;;8.33;2.00;;;7.40;99.90;;;;;;5099733;28;20220;-68
2023/02/02 01:37:00;;;;;;;6.03;1.80;;;7.40;99.90;;;;;;5089991;28;20184;-68
2023/02/02 01:39:28;;;;;;;6.27;2.10;;;7.40;99.90;;;;;;5065292;28;20283;-68
2023/02/02 01:41:56;;;;;;;7.53;1.90;;;7.50;99.90;;;;;;5097709;28;20199;-68
2023/02/02 01:45:06;;;;;;;9.10;2.07;;;7.50;99.90;;;;;;5088224;28;20540;-68
2023/02/02 01:47:40;;;;;;;10.30;2.47;;;7.50;99.90;;;;;;5076659;28;20226;-68
2023/02/02 01:50:09;;;;;;;8.10;2.30;;;7.40;99.90;;;;;;5064037;28;20197;-67
2023/02/02 01:52:38;;;;;;;11.33;2.30;;;7.40;99.90;;;;;;5096034;28;20581;-68
2023/02/02 01:55:09;;;;;;;9.20;2.03;;;7.40;99.90;;;;;;5099683;28;20209;-68
2023/02/02 01:57:40;;;;;;;6.63;2.27;;;7.40;99.90;;;;;;5066020;28;20215;-68
2023/02/02 02:00:10;;;;;;;6.50;1.77;;;7.40;99.90;;;;;;5098694;28;20196;-67
2023/02/02 02:02:45;;;;;;;4.93;1.80;;;7.40;99.90;;;;;;5094770;28;20232;-66
2023/02/02 02:05:17;;;;;;;5.07;1.50;;;7.40;99.90;;;;;;5067909;28;20223;-67
2023/02/02 02:07:49;;;;;;;4.70;1.50;;;7.30;99.90;;;;;;5068499;28;20315;-67
2023/02/02 02:10:17;;;;;;;5.20;1.57;;;7.30;99.90;;;;;;5099023;28;20203;-67
2023/02/02 02:12:46;;;;;;;6.67;1.63;;;7.30;99.90;;;;;;5063721;28;20200;-66
2023/02/02 02:18:14;;;;;;;8.73;1.70;;;7.30;99.90;;;;;;5092246;28;20191;-66
2023/02/02 02:28:20;;;;;;;5.37;1.50;;;7.30;99.90;;;;;;5002252;28;20201;-68
2023/02/02 02:31:16;;;;;;;4.07;1.63;;;7.30;99.90;;;;;;5099156;28;20220;-68
2023/02/02 02:33:49;;;;;;;2.87;1.27;;;7.20;99.90;;;;;;5035866;28;20298;-68
2023/02/02 02:36:20;;;;;;;7.23;1.67;;;7.20;99.90;;;;;;5101852;28;20217;-68
2023/02/02 02:38:54;;;;;;;4.10;1.40;;;7.20;99.90;;;;;;5071057;28;20280;-68
2023/02/02 02:41:24;;;;;;;4.23;1.80;;;7.20;99.90;;;;;;5096425;28;20553;-68
2023/02/02 02:43:56;;;;;;;2.60;1.30;;;7.20;99.90;;;;;;5073239;28;20250;-67
2023/02/02 02:46:24;;;;;;;3.70;1.57;;;7.20;99.90;;;;;;5062914;28;20761;-68
2023/02/02 02:48:53;;;;;;;5.50;2.00;;;7.20;99.90;;;;;;5102077;28;20184;-67
2023/02/02 02:51:45;;;;;;;3.13;1.27;;;7.20;99.90;;;;;;5100331;28;20641;-67
2023/02/02 02:54:18;;;;;;;4.33;1.70;;;7.20;99.90;;;;;;5066994;28;20201;-67
2023/02/02 02:56:58;;;;;;;3.03;1.50;;;7.10;99.90;;;;;;5105967;28;20686;-66
2023/02/02 02:59:36;;;;;;;3.00;1.40;;;7.20;99.90;;;;;;5102726;28;20601;-66
2023/02/02 03:02:25;;;;;;;12.47;3.03;;;7.20;99.90;;;;;;5070367;28;20220;-66
2023/02/02 03:05:03;;;;;;;16.67;4.33;;;7.10;99.90;;;;;;5099540;28;20224;-67
2023/02/02 03:07:35;;;;;;;13.87;3.60;;;7.10;99.90;;;;;;5074553;28;21105;-67
2023/02/02 03:10:07;;;;;;;17.77;4.47;;;7.00;99.90;;;;;;5098425;28;20578;-66
2023/02/02 03:12:43;;;;;;;17.53;4.30;;;7.00;99.90;;;;;;5100715;28;20553;-68
2023/02/02 03:15:11;;;;;;;9.63;2.90;;;6.90;99.90;;;;;;5068603;28;20201;-66
2023/02/02 03:17:38;;;;;;;8.37;3.17;;;6.90;99.90;;;;;;5101997;28;20200;-68
2023/02/02 03:20:08;;;;;;;5.13;2.47;;;7.00;99.90;;;;;;5099511;28;20252;-67
2023/02/02 03:22:35;;;;;;;7.53;2.40;;;7.00;99.90;;;;;;5091743;28;20199;-67
2023/02/02 03:25:02;;;;;;;5.17;2.07;;;7.00;99.90;;;;;;5106216;28;20184;-66
2023/02/02 03:27:29;;;;;;;5.37;2.10;;;7.00;99.90;;;;;;5101306;28;20199;-66
2023/02/02 03:29:57;;;;;;;3.53;1.93;;;7.00;99.90;;;;;;5091513;28;20199;-66
2023/02/02 03:32:24;;;;;;;3.57;1.80;;;7.00;99.90;;;;;;5101798;28;20208;-67
2023/02/02 03:34:51;;;;;;;2.97;1.50;;;7.00;99.90;;;;;;5103002;28;20701;-67
2023/02/02 03:37:19;;;;;;;4.13;1.40;;;7.00;99.90;;;;;;5088869;28;20315;-67
2023/02/02 03:39:46;;;;;;;4.73;1.77;;;7.00;99.90;;;;;;5077318;28;20209;-67
2023/02/02 03:42:14;;;;;;;5.90;1.90;;;7.00;99.90;;;;;;5069192;28;20206;-67
2023/02/02 03:44:41;;;;;;;3.27;1.40;;;7.00;99.90;;;;;;5092189;28;20196;-67
2023/02/02 03:47:08;;;;;;;2.97;1.63;;;7.00;99.90;;;;;;5094518;28;20192;-66
2023/02/02 03:49:36;;;;;;;6.13;1.80;;;7.00;99.90;;;;;;5102765;28;20937;-67
2023/02/02 03:52:03;;;;;;;5.77;1.80;;;7.00;99.90;;;;;;5092690;28;20199;-66
2023/02/02 03:54:32;;;;;;;5.40;2.10;;;7.00;99.90;;;;;;5101747;28;20218;-66
2023/02/02 03:56:59;;;;;;;3.93;1.70;;;7.00;99.90;;;;;;5104323;28;20195;-65
2023/02/02 03:59:26;;;;;;;3.07;1.73;;;7.00;99.90;;;;;;5067580;28;20203;-67
2023/02/02 04:01:54;;;;;;;4.30;1.77;;;7.00;99.90;;;;;;5098772;28;20193;-66
2023/02/02 04:04:21;;;;;;;4.87;2.10;;;6.90;99.90;;;;;;5104304;28;20226;-66
2023/02/02 04:06:48;;;;;;;5.50;2.20;;;6.90;99.90;;;;;;5093763;28;20203;-66
2023/02/02 04:09:15;;;;;;;6.93;2.20;;;6.90;99.90;;;;;;5101338;28;20900;-66
2023/02/02 04:11:44;;;;;;;5.20;2.43;;;6.90;99.90;;;;;;5104137;28;20551;-66
2023/02/02 04:14:11;;;;;;;7.17;2.30;;;7.00;99.90;;;;;;5099085;28;20221;-66
2023/02/02 04:16:38;;;;;;;4.67;1.90;;;6.90;99.90;;;;;;5104013;28;20540;-67
2023/02/02 04:19:06;;;;;;;6.63;1.90;;;7.00;99.90;;;;;;5090104;28;20918;-66
2023/02/02 04:21:33;;;;;;;2.67;1.33;;;7.00;99.90;;;;;;5074391;28;20670;-66
2023/02/02 04:24:00;;;;;;;6.20;1.97;;;7.00;99.90;;;;;;5095246;28;20203;-66
2023/02/02 04:26:27;;;;;;;5.83;1.67;;;7.00;99.90;;;;;;5092273;28;20228;-66
2023/02/02 04:28:56;;;;;;;4.57;1.77;;;7.10;99.90;;;;;;5101969;28;20672;-67
2023/02/02 04:31:23;;;;;;;5.17;1.70;;;7.10;99.90;;;;;;5102580;28;20547;-67
2023/02/02 04:33:50;;;;;;;2.87;1.63;;;7.10;99.90;;;;;;5072025;28;20200;-67
2023/02/02 04:36:17;;;;;;;1.97;1.37;;;7.10;99.90;;;;;;5103057;28;20204;-67
2023/02/02 04:38:48;;;;;;;4.13;1.80;;;7.10;99.90;;;;;;5066738;28;20206;-67
2023/02/02 04:41:17;;;;;;;2.20;1.27;;;7.10;99.90;;;;;;5069560;28;20209;-67
2023/02/02 04:43:45;;;;;;;5.30;1.83;;;7.10;99.90;;;;;;5099915;28;20196;-67
2023/02/02 04:46:14;;;;;;;2.00;1.20;;;7.10;99.90;;;;;;5094745;28;20199;-69
2023/02/02 04:48:42;;;;;;;2.63;1.40;;;7.10;99.90;;;;;;5091757;28;20539;-68
2023/02/02 04:51:11;;;;;;;2.10;1.17;;;7.10;99.90;;;;;;5098218;28;20654;-67
2023/02/02 04:53:38;;;;;;;1.37;0.90;;;7.10;99.90;;;;;;5105088;28;20283;-67
2023/02/02 04:56:07;;;;;;;2.03;1.00;;;7.10;99.90;;;;;;5092013;28;20214;-68
2023/02/02 04:58:35;;;;;;;1.73;1.00;;;7.20;99.90;;;;;;5100650;28;20196;-68
2023/02/02 05:01:07;;;;;;;2.80;1.17;;;7.20;99.90;;;;;;5072101;28;20211;-67
2023/02/02 05:03:36;;;;;;;1.20;1.00;;;7.20;99.90;;;;;;5095785;28;20232;-67
2023/02/02 05:06:04;;;;;;;2.80;1.03;;;7.20;99.90;;;;;;5069322;28;20657;-67
2023/02/02 05:08:31;;;;;;;2.60;1.00;;;7.20;99.90;;;;;;5090883;28;20196;-67
2023/02/02 05:10:59;;;;;;;1.93;1.00;;;7.20;99.90;;;;;;5098339;28;20218;-67
2023/02/02 05:13:26;;;;;;;1.17;0.90;;;7.20;99.90;;;;;;5074761;28;20208;-67
2023/02/02 05:15:54;;;;;;;1.30;0.90;;;7.20;99.90;;;;;;5091545;28;20212;-66
2023/02/02 05:18:24;;;;;;;1.63;0.93;;;7.30;99.90;;;;;;5091204;28;20200;-66
2023/02/02 05:20:53;;;;;;;1.60;0.83;;;7.20;99.90;;;;;;5096931;28;20740;-67
2023/02/02 05:23:21;;;;;;;1.50;1.00;;;7.30;99.90;;;;;;5085449;28;20200;-68
2023/02/02 05:25:52;;;;;;;2.27;1.30;;;7.30;99.90;;;;;;5096536;28;20659;-68
2023/02/02 05:28:20;;;;;;;2.07;1.30;;;7.30;99.90;;;;;;5090274;28;20189;-67
2023/02/02 05:30:49;;;;;;;1.97;1.30;;;7.30;99.90;;;;;;5085041;28;20200;-68
2023/02/02 05:33:17;;;;;;;1.03;1.00;;;7.30;99.90;;;;;;5074093;28;20206;-67
2023/02/02 05:35:45;;;;;;;1.90;1.03;;;7.30;99.90;;;;;;5093039;28;20204;-68
2023/02/02 05:38:14;;;;;;;1.40;1.30;;;7.30;99.90;;;;;;5092501;28;20226;-66
2023/02/02 05:40:42;;;;;;;1.80;1.20;;;7.30;99.90;;;;;;5094769;28;20288;-67
2023/02/02 05:43:09;;;;;;;1.40;1.10;;;7.30;99.90;;;;;;5094843;28;20203;-67
2023/02/02 05:45:36;;;;;;;1.33;1.00;;;7.30;99.90;;;;;;5094174;28;20256;-67
2023/02/02 05:48:03;;;;;;;1.50;1.30;;;7.30;99.90;;;;;;5096275;28;20196;-67
2023/02/02 05:50:30;;;;;;;1.63;1.23;;;7.30;99.90;;;;;;5099335;28;20787;-67
2023/02/02 05:53:04;;;;;;;3.63;1.93;;;7.30;99.90;;;;;;5095512;28;20618;-67
2023/02/02 05:55:33;;;;;;;1.67;1.27;;;7.30;99.90;;;;;;5068278;28;20868;-67
2023/02/02 05:58:00;;;;;;;1.80;1.30;;;7.30;99.90;;;;;;5102061;28;20192;-67
2023/02/02 06:00:27;;;;;;;1.43;1.33;;;7.30;99.90;;;;;;5095159;28;20195;-67
2023/02/02 06:02:54;;;;;;;3.17;1.70;;;7.20;99.90;;;;;;5099972;28;20563;-68
2023/02/02 06:05:22;;;;;;;2.77;1.73;;;7.20;99.90;;;;;;5090869;28;20193;-68
2023/02/02 06:07:49;;;;;;;1.60;1.37;;;7.20;99.90;;;;;;5096851;28;20187;-67
2023/02/02 06:10:17;;;;;;;1.57;1.00;;;7.20;99.90;;;;;;5097082;28;20192;-68
2023/02/02 06:12:45;;;;;;;2.90;1.67;;;7.20;99.90;;;;;;5091426;28;20200;-68
2023/02/02 06:15:12;;;;;;;2.87;1.63;;;7.20;99.90;;;;;;5103087;28;20595;-67
2023/02/02 06:17:40;;;;;;;2.07;1.47;;;7.20;99.90;;;;;;5097516;28;20195;-67
2023/02/02 06:20:07;;;;;;;1.77;1.20;;;7.20;99.90;;;;;;5089216;28;20192;-67
2023/02/02 06:22:36;;;;;;;3.87;1.67;;;7.20;99.90;;;;;;5098316;28;20199;-67
2023/02/02 06:25:06;;;;;;;2.03;1.80;;;7.20;99.90;;;;;;5098954;28;20267;-67
2023/02/02 06:27:34;;;;;;;1.93;1.43;;;7.20;99.90;;;;;;5082108;28;20694;-67
2023/02/02 06:30:03;;;;;;;1.13;1.00;;;7.10;99.90;;;;;;5103065;28;20207;-68
2023/02/02 06:32:30;;;;;;;1.20;1.10;;;7.00;99.90;;;;;;5099167;28;20207;-67
2023/02/02 06:34:57;;;;;;;1.07;0.90;;;6.90;99.90;;;;;;5084634;28;20239;-67
2023/02/02 06:37:24;;;;;;;1.50;1.03;;;6.80;99.90;;;;;;5096760;28;20578;-67
2023/02/02 06:39:51;;;;;;;1.17;1.07;;;6.80;99.90;;;;;;5073578;28;20651;-66
2023/02/02 06:42:19;;;;;;;0.83;0.83;;;6.70;99.90;;;;;;5088460;28;20309;-67
2023/02/02 06:44:46;;;;;;;0.80;0.80;;;6.70;99.90;;;;;;5089784;28;20200;-67
2023/02/02 06:47:14;;;;;;;1.00;1.00;;;6.60;99.90;;;;;;5069388;28;21092;-68
2023/02/02 06:49:41;;;;;;;1.30;1.20;;;6.60;99.90;;;;;;5091484;28;20197;-66
2023/02/02 06:52:09;;;;;;;1.07;1.03;;;6.60;99.90;;;;;;5099898;28;20203;-67
2023/02/02 06:54:36;;;;;;;1.20;1.00;;;6.50;99.90;;;;;;5094279;28;20574;-67
2023/02/02 06:57:03;;;;;;;1.33;1.17;;;6.50;99.90;;;;;;5089364;28;20874;-66
2023/02/02 06:59:31;;;;;;;1.10;1.00;;;6.50;99.90;;;;;;5095326;28;20199;-67
2023/02/02 07:01:58;;;;;;;1.20;1.10;;;6.50;99.90;;;;;;5092089;28;20195;-67
2023/02/02 07:04:27;;;;;;;0.93;0.87;;;6.50;99.90;;;;;;5060694;28;20326;-68
2023/02/02 07:06:54;;;;;;;3.43;1.40;;;6.50;99.90;;;;;;5081915;28;20180;-68
2023/02/02 07:09:21;;;;;;;1.97;1.03;;;6.50;99.90;;;;;;5081666;28;20805;-68
2023/02/02 07:11:48;;;;;;;1.73;0.80;;;6.50;99.90;;;;;;5099296;28;20188;-67
2023/02/02 07:14:16;;;;;;;1.97;1.20;;;6.50;99.90;;;;;;5091712;28;20780;-66
2023/02/02 07:16:43;;;;;;;1.23;1.13;;;6.50;99.90;;;;;;5090164;28;20226;-66
2023/02/02 07:19:10;;;;;;;1.40;1.07;;;6.50;99.90;;;;;;5095666;28;20276;-66
2023/02/02 07:21:39;;;;;;;1.13;1.10;;;6.60;99.90;;;;;;5086186;28;20257;-66
2023/02/02 07:24:07;;;;;;;0.93;0.83;;;6.60;99.90;;;;;;5088320;28;20192;-66
2023/02/02 07:26:35;;;;;;;1.23;1.10;;;6.60;99.90;;;;;;5096515;28;20200;-67
2023/02/02 07:29:03;;;;;;;1.77;1.10;;;6.60;99.90;;;;;;5099550;28;20237;-67
2023/02/02 07:31:30;;;;;;;3.40;0.90;;;6.60;99.90;;;;;;5086184;28;20199;-65
2023/02/02 07:33:58;;;;;;;1.47;1.17;;;6.70;99.90;;;;;;5090642;28;20255;-66
2023/02/02 07:36:25;;;;;;;1.67;1.07;;;6.70;99.90;;;;;;5068479;28;20307;-67
2023/02/02 07:38:56;;;;;;;1.33;1.10;;;6.70;99.90;;;;;;5091182;28;20197;-67
2023/02/02 07:41:24;;;;;;;1.73;1.03;;;6.70;99.90;;;;;;5091647;28;20198;-67
2023/02/02 07:43:51;;;;;;;4.27;1.13;;;6.70;99.90;;;;;;5097370;28;20254;-67
2023/02/02 07:46:19;;;;;;;1.33;1.10;;;6.80;99.90;;;;;;5088523;28;20184;-66
2023/02/02 07:48:46;;;;;;;2.87;1.70;;;6.80;99.90;;;;;;5103515;28;20192;-67
2023/02/02 07:51:15;;;;;;;2.30;1.40;;;6.80;99.90;;;;;;5092355;28;20297;-67
2023/02/02 07:53:44;;;;;;;1.40;1.30;;;6.80;99.90;;;;;;5069141;28;20213;-67
2023/02/02 07:56:14;;;;;;;2.03;1.10;;;6.80;99.90;;;;;;5102547;28;20212;-67
2023/02/02 07:58:42;;;;;;;1.17;1.00;;;6.80;99.90;;;;;;5100000;28;20682;-67
2023/02/02 08:01:11;;;;;;;1.13;1.03;;;6.90;99.90;;;;;;5090774;28;20197;-67
2023/02/02 08:03:39;;;;;;;4.37;1.97;;;6.90;99.90;;;;;;5098268;28;20238;-67
2023/02/02 08:06:12;;;;;;;2.00;1.47;;;6.90;99.90;;;;;;5095937;28;20191;-67
2023/02/02 08:08:39;;;;;;;3.07;1.70;;;7.00;99.90;;;;;;5097288;28;20203;-68
2023/02/02 08:11:09;;;;;;;1.90;1.37;;;7.00;99.90;;;;;;5097908;28;20198;-67
2023/02/02 08:13:38;;;;;;;2.23;1.63;;;7.00;99.90;;;;;;5096268;28;20217;-68
2023/02/02 08:16:06;;;;;;;2.27;1.37;;;7.00;99.90;;;;;;5094294;28;20196;-67
2023/02/02 08:18:34;;;;;;;2.20;1.57;;;7.10;99.90;;;;;;5069595;28;20661;-68
2023/02/02 08:21:01;;;;;;;1.30;1.20;;;7.10;99.90;;;;;;5069441;28;20324;-68
2023/02/02 08:23:30;;;;;;;3.30;1.63;;;7.10;99.90;;;;;;5101128;28;20195;-67
2023/02/02 08:26:06;;;;;;;1.27;1.10;;;7.10;99.90;;;;;;5093387;28;20235;-68
2023/02/02 08:28:34;;;;;;;1.07;1.03;;;7.10;99.90;;;;;;5087432;28;20203;-68
2023/02/02 08:31:06;;;;;;;1.53;1.40;;;7.20;99.90;;;;;;5096781;28;20802;-68
2023/02/02 08:33:34;;;;;;;1.97;1.40;;;7.20;99.90;;;;;;5068400;28;20215;-68
2023/02/02 08:36:01;;;;;;;2.40;1.30;;;7.20;99.90;;;;;;5072903;28;20244;-67
2023/02/02 08:38:28;;;;;;;2.13;1.67;;;7.20;99.90;;;;;;5097528;28;20189;-67
2023/02/02 08:40:56;;;;;;;3.90;1.40;;;7.20;99.90;;;;;;5092391;28;20192;-68
2023/02/02 08:43:23;;;;;;;2.37;1.67;;;7.30;99.90;;;;;;5094813;28;20274;-68
2023/02/02 08:45:51;;;;;;;1.63;1.50;;;7.30;99.90;;;;;;5093235;28;20657;-68
2023/02/02 08:48:20;;;;;;;1.73;1.30;;;7.40;99.90;;;;;;5099592;28;20200;-68
2023/02/02 08:50:53;;;;;;;1.73;1.47;;;7.60;99.90;;;;;;5086942;28;20266;-68
2023/02/02 08:53:21;;;;;;;1.80;1.40;;;7.70;99.90;;;;;;5096805;28;20574;-68
2023/02/02 08:55:49;;;;;;;2.10;1.80;;;7.80;99.90;;;;;;5091937;28;21042;-68
2023/02/02 08:58:16;;;;;;;1.93;1.50;;;7.80;99.90;;;;;;5088875;28;20200;-68
2023/02/02 09:00:43;;;;;;;1.50;1.30;;;7.70;99.90;;;;;;5095141;28;20196;-68
2023/02/02 09:03:10;;;;;;;2.33;1.50;;;7.70;99.90;;;;;;5055153;28;20208;-68
2023/02/02 09:05:39;;;;;;;1.30;1.20;;;7.70;99.90;;;;;;5097393;28;20206;-68
2023/02/02 09:08:06;;;;;;;1.73;1.60;;;7.70;99.90;;;;;;5067525;28;20196;-68
2023/02/02 09:10:35;;;;;;;2.70;1.70;;;7.70;99.90;;;;;;5090127;28;20904;-68
2023/02/02 09:13:02;;;;;;;1.70;1.37;;;7.70;99.90;;;;;;5092994;28;20193;-68
2023/02/02 09:15:30;;;;;;;1.63;1.27;;;7.80;99.90;;;;;;5094430;28;20184;-68
2023/02/02 09:17:57;;;;;;;2.47;1.50;;;7.80;99.90;;;;;;5063623;28;20196;-68
2023/02/02 09:20:24;;;;;;;1.50;1.23;;;7.80;99.90;;;;;;5070211;28;20209;-68
2023/02/02 09:22:56;;;;;;;1.23;1.13;;;7.90;99.90;;;;;;5068948;28;20262;-67
2023/02/02 09:25:24;;;;;;;1.33;1.07;;;8.00;99.90;;;;;;5088547;28;20191;-67
2023/02/02 09:27:51;;;;;;;2.27;1.17;;;8.00;99.90;;;;;;5090852;28;20300;-68
2023/02/02 09:30:19;;;;;;;2.60;1.50;;;8.10;99.90;;;;;;5096155;28;20188;-68
2023/02/02 09:32:49;;;;;;;2.97;2.10;;;8.10;99.90;;;;;;5086305;28;20202;-68
2023/02/02 09:35:17;;;;;;;2.13;1.53;;;8.00;99.90;;;;;;5097490;28;20740;-68
2023/02/02 09:37:44;;;;;;;1.67;1.43;;;8.00;99.90;;;;;;5095260;28;20215;-68
2023/02/02 09:40:18;;;;;;;2.57;1.60;;;8.00;99.90;;;;;;5091592;28;20192;-68
2023/02/02 09:43:01;;;;;;;1.87;1.10;;;7.90;99.90;;;;;;5097610;28;20770;-68
2023/02/02 09:45:37;;;;;;;1.47;1.37;;;7.90;99.90;;;;;;5089983;28;20183;-67
2023/02/02 09:48:19;;;;;;;1.27;1.13;;;7.90;99.90;;;;;;5068691;28;20203;-67
2023/02/02 09:50:50;;;;;;;1.80;1.30;;;7.90;99.90;;;;;;5093752;28;20200;-68
2023/02/02 09:53:23;;;;;;;1.37;1.13;;;7.90;99.90;;;;;;5073959;28;20197;-67
2023/02/02 09:55:55;;;;;;;2.40;1.43;;;7.90;99.90;;;;;;5071079;28;20256;-67
2023/02/02 09:58:26;;;;;;;1.23;1.07;;;7.90;99.90;;;;;;5093149;28;20714;-68
2023/02/02 10:01:01;;;;;;;2.70;1.53;;;7.90;99.90;;;;;;5080438;28;20191;-67
2023/02/02 10:03:37;;;;;;;1.97;0.90;;;7.90;99.90;;;;;;5090797;28;20248;-67
2023/02/02 10:06:12;;;;;;;2.13;1.30;;;7.90;99.90;;;;;;5094765;28;20219;-67
2023/02/02 10:08:44;;;;;;;1.73;1.30;;;7.90;99.90;;;;;;5085953;28;20668;-67
2023/02/02 10:11:30;;;;;;;1.17;1.07;;;7.80;99.90;;;;;;5094381;28;20627;-67
2023/02/02 10:14:03;;;;;;;1.13;0.90;;;7.70;99.90;;;;;;5085241;28;20216;-67
2023/02/02 10:16:31;;;;;;;1.00;0.90;;;7.70;99.90;;;;;;5092177;28;20300;-67
2023/02/02 10:19:01;;;;;;;1.33;1.00;;;7.60;99.90;;;;;;5066017;28;20646;-67
2023/02/02 10:21:35;;;;;;;1.80;1.17;;;7.60;99.90;;;;;;5088491;28;20198;-67
2023/02/02 10:24:03;;;;;;;1.30;1.20;;;7.60;99.90;;;;;;5100575;28;20644;-68
2023/02/02 10:26:38;;;;;;;1.93;0.90;;;7.60;99.90;;;;;;5096593;28;20326;-67
2023/02/02 10:29:15;;;;;;;2.60;1.10;;;7.60;99.90;;;;;;5089186;28;20191;-67
2023/02/02 10:31:48;;;;;;;1.27;0.90;;;7.50;99.90;;;;;;5098992;28;20219;-66
2023/02/02 10:34:20;;;;;;;0.80;0.80;;;7.50;99.90;;;;;;5074769;28;20662;-67
2023/02/02 10:37:23;;;;;;;1.23;0.90;;;7.50;99.90;;;;;;5085959;28;20688;-67
2023/02/02 10:40:10;;;;;;;1.10;1.03;;;7.60;99.90;;;;;;5094835;28;20220;-67
2023/02/02 10:43:44;;;;;;;3.23;0.73;;;8.00;99.90;;;;;;5083371;28;20185;-67
2023/02/02 10:45:41;;;;;;;1.00;0.83;;;8.90;99.90;;;;;;5097287;28;20619;-67
2023/02/02 10:48:15;;;;;;;1.47;0.83;;;10.20;99.90;;;;;;5064365;28;20200;-68
2023/02/02 10:50:45;;;;;;;1.57;1.00;;;11.30;99.90;;;;;;5093696;28;20197;-66
2023/02/02 10:53:14;;;;;;;1.20;1.10;;;12.30;99.30;;;;;;5094340;28;20198;-66
2023/02/02 10:55:49;;;;;;;1.10;1.00;;;12.80;97.80;;;;;;5105375;28;20202;-67
2023/02/02 10:58:24;;;;;;;1.37;0.90;;;12.70;97.00;;;;;;5085331;28;20218;-67
2023/02/02 11:00:53;;;;;;;1.30;0.97;;;12.40;96.80;;;;;;5096102;28;20198;-67
2023/02/02 11:03:23;;;;;;;1.47;1.20;;;12.20;97.00;;;;;;5088110;28;20218;-66
2023/02/02 11:08:38;;;;;;;1.03;0.97;;;12.10;96.10;;;;;;5092251;28;20693;-67
2023/02/02 11:11:17;;;;;;;1.20;1.10;;;12.30;96.00;;;;;;5086697;28;20189;-67
2023/02/02 11:13:51;;;;;;;0.87;0.87;;;11.90;95.40;;;;;;5093788;28;20214;-68
2023/02/02 11:16:21;;;;;;;2.07;1.00;;;11.90;95.70;;;;;;5093870;28;20274;-67
2023/02/02 11:18:49;;;;;;;2.10;1.30;;;11.60;95.40;;;;;;5085286;28;20212;-68
2023/02/02 11:21:20;;;;;;;2.33;1.27;;;11.30;95.60;;;;;;5097370;28;20208;-67
2023/02/02 11:24:00;;;;;;;1.60;1.20;;;11.20;95.70;;;;;;5101008;28;20189;-67
2023/02/02 11:26:41;;;;;;;4.60;1.27;;;11.30;95.70;;;;;;5090884;28;20179;-67
2023/02/02 11:29:19;;;;;;;2.10;1.50;;;11.20;95.40;;;;;;5103298;28;20732;-67
2023/02/02 11:31:46;;;;;;;5.73;1.23;;;11.10;95.50;;;;;;5063320;28;20835;-68
2023/02/02 11:34:18;;;;;;;4.17;1.20;;;11.10;95.60;;;;;;5100118;28;20203;-67
2023/02/02 11:37:03;;;;;;;1.53;1.33;;;10.80;95.60;;;;;;5096443;28;20215;-67
2023/02/02 11:39:30;;;;;;;2.40;1.20;;;10.60;95.70;;;;;;5087035;28;20190;-67
2023/02/02 11:42:07;;;;;;;1.43;1.10;;;10.50;95.80;;;;;;5102411;28;20185;-67
2023/02/02 11:44:39;;;;;;;2.10;1.20;;;10.40;95.60;;;;;;5094795;28;20196;-67
2023/02/02 11:47:07;;;;;;;1.93;0.97;;;10.20;95.00;;;;;;5071821;28;20984;-67
2023/02/02 11:49:42;;;;;;;0.70;0.70;;;10.30;95.00;;;;;;5101096;28;20698;-67
2023/02/02 11:52:18;;;;;;;0.70;0.70;;;10.20;95.00;;;;;;5100339;28;20188;-67
2023/02/02 11:54:48;;;;;;;1.97;0.80;;;10.10;95.30;;;;;;5090696;28;20192;-67
2023/02/02 11:57:19;;;;;;;1.10;0.90;;;9.90;96.10;;;;;;5098493;28;20215;-67
2023/02/02 11:59:49;;;;;;;0.93;0.73;;;9.60;96.40;;;;;;5096747;28;20205;-67
2023/02/02 12:02:30;;;;;;;0.80;0.80;;;9.50;96.70;;;;;;5063189;28;20260;-67
2023/02/02 12:05:22;;;;;;;1.50;0.80;;;9.30;97.10;;;;;;5099044;28;20237;-67
2023/02/02 12:07:49;;;;;;;1.57;1.00;;;9.10;97.40;;;;;;5091563;28;20214;-67
2023/02/02 12:10:25;;;;;;;2.63;0.93;;;8.90;97.70;;;;;;5097860;28;20199;-67
2023/02/02 12:13:00;;;;;;;0.80;0.80;;;8.80;98.00;;;;;;5093441;28;20193;-67
2023/02/02 12:15:42;;;;;;;0.80;0.80;;;8.70;98.40;;;;;;5083431;28;20191;-67
2023/02/02 12:18:25;;;;;;;1.10;0.70;;;8.50;98.50;;;;;;5096322;28;20276;-66
2023/02/02 12:20:58;;;;;;;1.07;0.80;;;8.40;98.90;;;;;;5098120;28;20186;-67
2023/02/02 12:23:43;;;;;;;1.07;1.00;;;8.30;99.20;;;;;;5064528;28;20197;-67
2023/02/02 12:26:20;;;;;;;1.20;1.10;;;8.20;99.60;;;;;;5101084;28;20191;-67
2023/02/02 12:29:12;;;;;;;1.07;1.07;;;8.10;99.80;;;;;;5090963;28;20186;-67
2023/02/02 12:31:49;;;;;;;0.77;0.77;;;7.90;99.90;;;;;;5098834;28;20201;-67
2023/02/02 12:34:28;;;;;;;0.80;0.80;;;7.90;99.90;;;;;;5074950;28;20251;-66
2023/02/02 12:37:08;;;;;;;1.83;0.80;;;7.80;99.90;;;;;;5069971;28;20193;-67
2023/02/02 12:39:50;;;;;;;0.80;0.80;;;7.80;99.90;;;;;;5098275;28;20191;-67
2023/02/02 12:42:40;;;;;;;2.33;0.80;;;7.80;99.90;;;;;;5099378;28;20682;-67
2023/02/02 12:45:35;;;;;;;1.20;0.70;;;7.80;99.90;;;;;;5055648;28;20565;-67
2023/02/02 12:48:17;;;;;;;1.00;1.00;;;7.80;99.90;;;;;;5096368;28;20176;-67
2023/02/02 12:51:00;;;;;;;0.70;0.70;;;7.80;99.90;;;;;;5095381;28;20206;-67
2023/02/02 12:53:39;;;;;;;1.10;1.00;;;7.70;99.90;;;;;;5079343;28;20196;-66
2023/02/02 12:56:21;;;;;;;0.87;0.80;;;7.70;99.90;;;;;;5097905;28;20237;-66
2023/02/02 12:58:57;;;;;;;1.10;1.00;;;7.70;99.90;;;;;;5078132;28;20234;-67
2023/02/02 13:01:52;;;;;;;1.10;1.00;;;7.60;99.90;;;;;;5096317;28;20203;-68
2023/02/02 13:04:40;;;;;;;1.53;0.97;;;7.60;99.90;;;;;;5095768;28;20704;-67
2023/02/02 13:07:27;;;;;;;1.20;1.10;;;7.50;99.90;;;;;;5084720;28;20361;-67
2023/02/02 13:10:06;;;;;;;3.67;1.60;;;7.50;99.90;;;;;;5097750;28;20196;-67
2023/02/02 13:12:38;;;;;;;2.83;1.37;;;7.60;99.90;;;;;;5091478;28;20604;-67
2023/02/02 13:15:09;;;;;;;1.67;1.20;;;7.60;99.90;;;;;;5095927;28;20227;-68
2023/02/02 13:17:42;;;;;;;3.40;1.30;;;7.60;99.90;;;;;;5078044;28;20220;-67
2023/02/02 13:20:36;;;;;;;2.00;1.37;;;7.70;99.90;;;;;;5088597;28;20190;-67
2023/02/02 13:23:11;;;;;;;3.23;1.40;;;7.40;99.90;;;;;;5091983;28;20210;-67
2023/02/02 13:25:44;;;;;;;2.60;1.50;;;7.80;99.90;;;;;;5096510;28;20192;-67
2023/02/02 13:28:22;;;;;;;1.77;1.30;;;7.80;99.90;;;;;;5084282;28;20193;-67